createdAt,value
2018-10-15T09:41:39.122Z,12
2018-10-15T09:51:48.774Z,11
2018-10-15T10:01:58.986Z,11
2018-10-15T10:12:07.524Z,10
2018-10-15T10:22:16.876Z,10
2018-10-15T10:32:25.710Z,10
2018-10-15T10:42:36.376Z,12
2018-10-15T10:52:45.892Z,11
2018-10-15T11:02:54.141Z,10
2018-10-15T11:13:00.843Z,8
2018-10-15T11:23:25.602Z,10
2018-10-15T11:31:43.061Z,10
2018-10-15T11:41:53.327Z,12
2018-10-15T11:52:05.409Z,13
2018-10-15T12:04:16.471Z,10
2018-10-15T12:05:19.352Z,11
2018-10-15T12:15:28.617Z,11
2018-10-15T12:25:36.763Z,12
2018-10-15T12:35:44.468Z,10
2018-10-15T12:45:54.398Z,11
2018-10-15T12:56:01.564Z,11
2018-10-15T13:06:13.930Z,10
2018-10-15T13:08:23.110Z,10
2018-10-15T13:18:31.531Z,11
2018-10-15T13:28:40.548Z,10
2018-10-15T13:38:49.683Z,9
2018-10-15T13:48:58.391Z,9
2018-10-15T13:59:06.743Z,9
2018-10-15T14:09:15.809Z,11
2018-10-15T14:19:24.279Z,11
2018-10-15T14:29:32.692Z,10
2018-10-15T14:39:56.322Z,10
2018-10-15T14:50:03.321Z,11
2018-10-15T15:00:10.958Z,10
2018-10-15T15:10:18.778Z,12
2018-10-15T15:20:27.015Z,12
2018-10-15T15:30:37.954Z,11
2018-10-15T15:39:47.974Z,11
2018-10-15T15:49:56.182Z,11
2018-10-15T16:00:05.389Z,12
2018-10-15T16:10:14.538Z,11
2018-10-15T16:20:24.766Z,11
2018-10-15T16:30:31.910Z,13
2018-10-15T16:40:40.022Z,13
2018-10-15T16:50:48.879Z,12
2018-10-15T17:00:58.954Z,12
2018-10-15T17:11:09.654Z,12
2018-10-15T17:21:20.052Z,12
2018-10-15T17:41:41.076Z,12
2018-10-15T17:51:48.105Z,13
2018-10-15T18:01:56.919Z,18
2018-10-15T18:12:07.182Z,12
2018-10-15T18:22:15.868Z,13
2018-10-15T18:32:25.169Z,14
2018-10-15T18:42:34.305Z,15
2018-10-15T18:52:42.191Z,17
2018-10-15T19:02:48.090Z,13
2018-10-15T19:12:57.340Z,16
2018-10-15T19:23:06.274Z,14
2018-10-15T19:33:15.411Z,13
2018-10-15T19:43:23.683Z,12
2018-10-15T19:53:33.181Z,13
2018-10-15T20:03:45.329Z,13
2018-10-15T20:13:53.140Z,13
2018-10-15T20:24:03.466Z,12
2018-10-15T20:34:11.209Z,13
2018-10-15T20:44:20.829Z,14
2018-10-15T20:54:28.623Z,16
2018-10-15T21:04:36.563Z,23
2018-10-15T21:14:46.626Z,21
2018-10-15T21:24:52.438Z,19
2018-10-15T21:35:01.183Z,18
2018-10-15T21:45:11.858Z,29
2018-10-15T21:55:21.350Z,19
2018-10-15T22:05:30.865Z,15
2018-10-15T22:15:39.723Z,14
2018-10-15T22:25:48.304Z,12
2018-10-15T22:35:57.188Z,14
2018-10-15T22:46:06.101Z,13
2018-10-15T22:56:13.431Z,13
2018-10-15T23:06:21.461Z,13
2018-10-15T23:16:31.170Z,13
2018-10-15T23:26:40.729Z,12
2018-10-15T23:36:49.758Z,14
2018-10-15T23:46:58.267Z,15
2018-10-15T23:57:08.017Z,14
